Time;durP1;ratioP1;P1;durP2;ratioP2;P2;SDS_P1;SDS_P2;PMS_P1;PMS_P2;Temp;Humidity;BMP_temperature;BMP_pressure;BME280_temperature;BME280_humidity;BME280_pressure;Samples;Min_cycle;Max_cycle;Signal;HPM_P1;HPM_P2
2022/05/17 04:00:44;;;;;;;12.88;9.65;;;11.70;99.90;;;;;;5806177;23;20613;-73
2022/05/17 04:03:10;;;;;;;10.48;8.50;;;11.60;99.90;;;;;;4993430;28;20122;-73
2022/05/17 04:05:35;;;;;;;12.77;9.57;;;11.60;99.90;;;;;;4994381;28;20046;-73
2022/05/17 04:08:01;;;;;;;11.70;8.90;;;11.60;99.90;;;;;;4995354;28;20030;-73
2022/05/17 04:10:27;;;;;;;12.70;9.13;;;11.60;99.90;;;;;;4979615;28;20480;-73
2022/05/17 04:12:52;;;;;;;12.32;8.85;;;11.60;99.90;;;;;;4979638;28;20027;-73
2022/05/17 04:15:21;;;;;;;15.20;9.82;;;11.60;99.90;;;;;;4978702;28;20052;-73
2022/05/17 04:17:47;;;;;;;10.95;8.95;;;11.60;99.90;;;;;;4979559;28;20035;-73
2022/05/17 04:20:14;;;;;;;11.90;9.48;;;11.60;99.90;;;;;;4967128;28;20093;-73
2022/05/17 04:22:44;;;;;;;15.07;10.27;;;11.60;99.90;;;;;;4978022;28;20090;-73
2022/05/17 04:25:11;;;;;;;13.15;9.82;;;11.70;99.90;;;;;;4995221;28;20049;-73
2022/05/17 04:27:37;;;;;;;11.13;9.05;;;11.70;99.90;;;;;;4997659;28;20027;-73
2022/05/17 04:30:03;;;;;;;12.90;9.02;;;11.80;99.90;;;;;;4986598;28;20449;-73
2022/05/17 04:32:29;;;;;;;12.38;8.93;;;11.80;99.90;;;;;;4977803;28;20458;-73
2022/05/17 04:34:54;;;;;;;13.15;9.48;;;11.70;99.90;;;;;;4974941;28;20047;-73
2022/05/17 04:37:20;;;;;;;11.77;9.10;;;11.70;99.90;;;;;;4997397;28;20035;-73
2022/05/17 04:39:46;;;;;;;12.38;10.65;;;11.80;99.90;;;;;;4996385;28;20043;-73
2022/05/17 04:42:12;;;;;;;15.43;12.13;;;11.80;99.90;;;;;;4996813;28;20031;-73
2022/05/17 04:44:37;;;;;;;16.63;12.85;;;12.00;99.90;;;;;;4983881;28;20505;-73
2022/05/17 04:47:03;;;;;;;17.30;12.07;;;12.10;99.90;;;;;;4977586;28;20138;-73
2022/05/17 04:49:29;;;;;;;12.82;11.27;;;12.20;99.90;;;;;;4982678;28;20455;-73
2022/05/17 04:51:55;;;;;;;15.25;10.40;;;12.20;99.90;;;;;;4968841;28;20047;-73
2022/05/17 04:54:21;;;;;;;11.85;10.15;;;12.30;99.90;;;;;;4960094;28;20489;-73
2022/05/17 04:56:46;;;;;;;14.55;9.88;;;12.20;99.90;;;;;;4978431;28;20110;-73
2022/05/17 04:59:12;;;;;;;13.35;9.80;;;12.20;99.90;;;;;;4995320;28;20489;-74
2022/05/17 05:01:38;;;;;;;12.05;9.68;;;12.30;99.90;;;;;;4996499;28;20516;-73
2022/05/17 05:04:04;;;;;;;12.60;9.52;;;12.20;99.90;;;;;;4970787;28;20505;-74
2022/05/17 05:06:30;;;;;;;13.05;9.07;;;12.30;99.90;;;;;;4977717;28;20066;-75
2022/05/17 05:08:55;;;;;;;14.15;11.30;;;12.30;99.90;;;;;;4963836;28;20042;-74
2022/05/17 05:11:21;;;;;;;12.98;10.80;;;12.40;99.90;;;;;;4996564;28;20090;-74
2022/05/17 05:13:46;;;;;;;13.63;11.50;;;12.50;99.90;;;;;;4989499;28;20051;-74
2022/05/17 05:16:14;;;;;;;14.88;11.35;;;12.50;99.90;;;;;;4977293;28;20440;-74
2022/05/17 05:18:40;;;;;;;17.73;10.73;;;12.60;99.90;;;;;;4984526;28;20533;-74
2022/05/17 05:21:12;;;;;;;15.02;11.07;;;12.70;99.90;;;;;;4976171;28;20063;-75
2022/05/17 05:23:39;;;;;;;13.52;11.05;;;12.80;99.90;;;;;;4964356;28;20039;-75
2022/05/17 05:26:05;;;;;;;16.60;12.77;;;12.90;99.90;;;;;;4996574;28;20058;-74
2022/05/17 05:28:31;;;;;;;28.02;13.35;;;13.10;99.90;;;;;;4978069;28;20031;-74
2022/05/17 05:30:58;;;;;;;23.02;13.15;;;13.20;99.90;;;;;;4983471;28;20042;-74
2022/05/17 05:33:23;;;;;;;19.98;12.05;;;13.30;99.90;;;;;;4974934;28;20461;-74
2022/05/17 05:35:51;;;;;;;16.65;11.57;;;13.50;99.90;;;;;;4986227;28;20059;-74
2022/05/17 05:38:17;;;;;;;14.38;12.23;;;13.60;99.90;;;;;;4989409;28;20035;-73
2022/05/17 05:40:43;;;;;;;16.50;11.52;;;13.80;99.90;;;;;;4976741;28;20482;-74
2022/05/17 05:43:08;;;;;;;14.63;11.10;;;13.90;99.90;;;;;;4959796;28;20060;-74
2022/05/17 05:45:34;;;;;;;18.90;11.88;;;14.00;99.90;;;;;;4996290;28;20030;-73
2022/05/17 05:48:00;;;;;;;15.05;11.30;;;14.10;99.90;;;;;;4987864;28;20122;-73
2022/05/17 05:50:26;;;;;;;14.30;11.02;;;14.20;99.90;;;;;;4977005;28;20162;-73
2022/05/17 05:53:00;;;;;;;31.60;13.07;;;14.30;99.90;;;;;;4976537;28;20039;-73
2022/05/17 05:55:26;;;;;;;30.70;12.88;;;14.40;99.90;;;;;;4987450;28;20066;-74
2022/05/17 05:57:52;;;;;;;31.23;11.65;;;14.60;99.90;;;;;;4976591;28;20094;-73
2022/05/17 06:00:19;;;;;;;17.85;10.43;;;14.60;99.90;;;;;;4976333;28;20505;-73
2022/05/17 06:02:46;;;;;;;13.32;9.65;;;14.70;99.90;;;;;;4978255;28;20046;-72
2022/05/17 06:05:11;;;;;;;11.27;9.27;;;14.80;99.90;;;;;;4976471;28;20082;-74
2022/05/17 06:07:37;;;;;;;9.70;8.38;;;14.90;99.90;;;;;;4976729;28;20070;-74
2022/05/17 06:10:05;;;;;;;12.95;8.90;;;15.00;99.90;;;;;;4979722;28;20441;-72
2022/05/17 06:12:31;;;;;;;10.32;9.15;;;15.20;99.90;;;;;;4976803;28;20037;-73
2022/05/17 06:14:57;;;;;;;14.27;9.18;;;15.30;99.90;;;;;;4993899;28;20049;-74
2022/05/17 06:17:27;;;;;;;13.13;9.00;;;15.50;99.90;;;;;;4993466;28;20105;-74
2022/05/17 06:19:59;;;;;;;13.57;8.65;;;15.50;99.90;;;;;;4989950;28;20034;-73
2022/05/17 06:22:25;;;;;;;12.10;8.52;;;15.70;99.90;;;;;;4995895;28;20105;-73
2022/05/17 06:24:51;;;;;;;10.73;8.07;;;15.90;99.90;;;;;;4968884;28;20055;-73
2022/05/17 06:27:17;;;;;;;10.80;7.80;;;15.90;99.90;;;;;;4983112;28;20042;-73
2022/05/17 06:29:42;;;;;;;12.40;7.80;;;16.00;99.90;;;;;;4976313;28;20110;-73
2022/05/17 06:32:12;;;;;;;12.35;8.15;;;16.20;99.90;;;;;;4974984;28;20079;-74
2022/05/17 06:34:39;;;;;;;11.00;8.20;;;16.30;99.90;;;;;;4958640;28;20067;-73
2022/05/17 06:37:06;;;;;;;12.55;7.32;;;16.40;99.90;;;;;;4989615;28;20035;-73
2022/05/17 06:39:32;;;;;;;8.00;6.82;;;16.50;99.90;;;;;;4977296;28;20047;-74
2022/05/17 06:41:57;;;;;;;8.13;6.53;;;16.70;99.90;;;;;;4976095;28;20489;-73
2022/05/17 06:44:23;;;;;;;8.73;6.40;;;16.80;99.90;;;;;;4975813;28;20043;-77
2022/05/17 06:46:49;;;;;;;11.07;6.53;;;16.90;99.90;;;;;;4989937;28;20035;-82
2022/05/17 06:49:15;;;;;;;9.15;6.68;;;17.00;99.90;;;;;;4976858;28;20092;-75
2022/05/17 06:51:41;;;;;;;10.77;6.30;;;17.20;99.90;;;;;;4958382;28;20038;-77
2022/05/17 06:54:07;;;;;;;7.47;6.25;;;17.40;99.90;;;;;;4976418;28;20069;-78
2022/05/17 06:56:36;;;;;;;8.30;6.05;;;17.50;99.90;;;;;;4958764;28;20064;-74
2022/05/17 06:59:03;;;;;;;8.23;5.80;;;17.70;99.90;;;;;;4991850;28;20045;-77
2022/05/17 07:01:29;;;;;;;10.40;6.07;;;17.80;99.90;;;;;;4981014;28;20042;-76
2022/05/17 07:03:54;;;;;;;8.25;5.90;;;18.00;99.90;;;;;;4975568;28;20130;-74
2022/05/17 07:06:21;;;;;;;7.50;5.30;;;18.20;99.90;;;;;;4981358;28;20033;-75
2022/05/17 07:08:47;;;;;;;6.80;5.30;;;18.40;99.90;;;;;;4985905;28;20042;-74
2022/05/17 07:13:57;;;;;;;7.95;5.13;;;18.60;99.90;;;;;;4967266;28;20500;-74
2022/05/17 07:16:23;;;;;;;6.15;4.90;;;18.70;99.90;;;;;;4976448;28;20035;-74
2022/05/17 07:18:48;;;;;;;9.77;5.18;;;18.90;99.90;;;;;;4976560;28;20118;-74
2022/05/17 07:21:14;;;;;;;8.32;4.70;;;19.00;99.90;;;;;;4975633;28;20486;-73
2022/05/17 07:23:40;;;;;;;7.10;4.30;;;19.10;99.90;;;;;;4975080;28;20042;-74
2022/05/17 07:26:09;;;;;;;7.72;4.63;;;19.30;99.90;;;;;;4975366;28;20122;-80
2022/05/17 07:28:40;;;;;;;6.53;4.13;;;19.60;99.90;;;;;;4981269;28;20515;-76
2022/05/17 07:31:05;;;;;;;7.65;4.38;;;19.90;99.90;;;;;;4995099;28;20035;-76
2022/05/17 07:33:31;;;;;;;7.70;5.07;;;20.20;99.90;;;;;;4994967;28;20070;-76
2022/05/17 07:35:56;;;;;;;8.90;4.75;;;20.10;99.90;;;;;;4994273;28;20074;-75
2022/05/17 07:38:22;;;;;;;6.82;4.20;;;20.10;99.90;;;;;;4995170;28;20396;-75
2022/05/17 07:40:50;;;;;;;10.77;4.93;;;20.30;99.90;;;;;;4967753;28;20050;-78
2022/05/17 07:43:16;;;;;;;10.57;4.90;;;20.60;99.90;;;;;;4981762;28;20414;-73
2022/05/17 07:45:42;;;;;;;6.82;4.40;;;20.80;99.90;;;;;;4979870;28;20142;-72
2022/05/17 07:48:08;;;;;;;7.05;4.18;;;21.00;99.90;;;;;;4987521;28;20034;-73
2022/05/17 07:50:34;;;;;;;10.70;3.95;;;21.10;99.90;;;;;;4986140;28;20511;-73
2022/05/17 07:53:12;;;;;;;6.63;3.70;;;21.30;99.90;;;;;;4996934;28;20066;-79
2022/05/17 07:55:40;;;;;;;9.00;3.72;;;21.50;99.90;;;;;;4984084;28;20047;-73
2022/05/17 07:58:06;;;;;;;8.32;3.90;;;21.50;99.90;;;;;;4978224;28;20086;-70
2022/05/17 08:00:33;;;;;;;8.02;3.90;;;21.80;99.90;;;;;;4969669;28;20178;-71
2022/05/17 08:02:59;;;;;;;6.28;3.35;;;21.80;99.90;;;;;;4979073;28;20035;-71
2022/05/17 08:05:26;;;;;;;9.13;4.18;;;21.80;99.90;;;;;;4961590;28;20094;-71
2022/05/17 08:07:52;;;;;;;7.60;3.20;;;21.90;99.90;;;;;;4979189;28;20539;-71
2022/05/17 08:10:18;;;;;;;8.93;3.65;;;21.90;99.90;;;;;;4988795;28;20536;-72
2022/05/17 08:12:44;;;;;;;9.38;3.65;;;21.90;99.90;;;;;;4996226;28;20043;-72
2022/05/17 08:15:10;;;;;;;7.75;3.10;;;21.90;99.90;;;;;;4995372;28;20045;-71
2022/05/17 08:17:36;;;;;;;5.10;3.10;;;22.10;98.60;;;;;;4997688;28;20031;-72
2022/05/17 08:20:07;;;;;;;7.65;3.10;;;22.20;98.60;;;;;;4989867;28;20430;-72
2022/05/17 08:22:33;;;;;;;5.50;2.90;;;22.40;97.30;;;;;;4974306;28;20035;-72
2022/05/17 08:27:44;;;;;;;9.25;2.75;;;22.90;94.30;;;;;;4978980;28;20062;-72
2022/05/17 08:30:09;;;;;;;6.70;2.67;;;23.40;93.10;;;;;;4967487;28;20049;-73
2022/05/17 08:35:20;;;;;;;7.15;2.92;;;23.70;90.50;;;;;;4994203;28;20420;-72
2022/05/17 08:37:46;;;;;;;6.88;2.33;;;23.80;90.90;;;;;;4960330;28;20135;-75
2022/05/17 08:40:20;;;;;;;4.07;1.75;;;24.00;90.30;;;;;;4968439;28;20043;-74
2022/05/17 08:43:10;;;;;;;7.13;1.52;;;23.80;88.80;;;;;;4995659;28;20059;-74
2022/05/17 08:46:02;;;;;;;4.57;1.60;;;23.70;84.10;;;;;;4981687;28;20031;-74
2022/05/17 08:48:35;;;;;;;3.20;1.45;;;23.70;86.90;;;;;;4990107;28;20039;-74
2022/05/17 08:51:01;;;;;;;6.93;1.67;;;23.20;84.20;;;;;;4982104;28;20499;-74
2022/05/17 08:53:27;;;;;;;3.45;1.23;;;23.30;86.70;;;;;;4960949;28;20031;-74
2022/05/17 08:55:53;;;;;;;6.20;1.70;;;23.40;82.50;;;;;;4976388;28;20518;-74
2022/05/17 08:58:22;;;;;;;3.25;1.40;;;23.40;82.40;;;;;;4977299;28;20513;-74
2022/05/17 09:01:06;;;;;;;5.85;1.60;;;23.80;81.60;;;;;;4991221;28;20495;-75
2022/05/17 09:03:56;;;;;;;6.38;1.80;;;24.10;81.80;;;;;;4993480;28;20055;-75
2022/05/17 09:06:41;;;;;;;6.10;2.38;;;24.10;84.40;;;;;;4964798;28;20050;-75
2022/05/17 09:09:18;;;;;;;4.82;2.20;;;24.40;80.90;;;;;;4979550;28;20134;-75
2022/05/17 09:12:08;;;;;;;5.15;2.15;;;24.80;82.40;;;;;;4978160;28;20039;-75
2022/05/17 09:14:40;;;;;;;4.53;2.30;;;25.00;80.30;;;;;;4977741;28;20527;-75
2022/05/17 09:17:13;;;;;;;7.75;2.85;;;24.50;81.80;;;;;;4977553;28;20070;-75
2022/05/17 09:19:38;;;;;;;5.40;2.70;;;24.30;83.50;;;;;;4978118;28;20501;-75
2022/05/17 09:22:06;;;;;;;6.53;2.20;;;24.50;81.10;;;;;;4978020;28;20043;-75
2022/05/17 09:25:15;;;;;;;7.50;2.22;;;24.50;81.40;;;;;;4960845;28;20047;-75
2022/05/17 09:27:41;;;;;;;7.10;2.30;;;24.90;80.70;;;;;;4974531;28;20035;-75
2022/05/17 09:30:13;;;;;;;5.72;2.25;;;25.00;80.70;;;;;;4971892;28;20048;-75
2022/05/17 09:32:44;;;;;;;6.43;2.10;;;24.80;80.20;;;;;;4978245;28;20071;-75
2022/05/17 09:35:20;;;;;;;6.57;2.15;;;24.90;81.40;;;;;;4976966;28;20045;-75
2022/05/17 09:37:51;;;;;;;9.60;2.60;;;24.70;79.70;;;;;;4978271;28;20082;-75
2022/05/17 09:40:31;;;;;;;7.68;2.58;;;24.60;81.10;;;;;;4975495;28;20032;-75
2022/05/17 09:42:57;;;;;;;7.38;2.30;;;24.80;77.10;;;;;;4966894;28;20047;-78
2022/05/17 09:45:45;;;;;;;5.90;2.42;;;25.10;79.20;;;;;;4979467;28;20039;-75
2022/05/17 09:48:12;;;;;;;3.63;1.90;;;25.40;73.70;;;;;;4979078;28;20028;-74
2022/05/17 09:53:49;;;;;;;11.55;2.88;;;25.80;75.10;;;;;;4986489;28;20071;-74
2022/05/17 09:56:17;;;;;;;8.52;2.88;;;25.70;76.00;;;;;;4995165;28;20043;-75
2022/05/17 09:58:44;;;;;;;6.18;2.53;;;25.70;76.00;;;;;;4987645;28;20038;-75
2022/05/17 10:01:40;;;;;;;7.57;2.70;;;26.10;72.50;;;;;;4989644;28;20500;-75
2022/05/17 10:04:10;;;;;;;6.03;2.40;;;25.60;72.10;;;;;;4995085;28;20047;-75
2022/05/17 10:06:39;;;;;;;3.92;2.20;;;25.80;73.80;;;;;;4993497;28;20495;-75
2022/05/17 10:09:12;;;;;;;6.07;2.28;;;25.90;70.80;;;;;;4986612;28;20458;-75
2022/05/17 10:11:52;;;;;;;5.95;1.70;;;25.60;69.20;;;;;;4996284;28;20460;-75
2022/05/17 10:14:25;;;;;;;8.23;1.83;;;25.40;67.00;;;;;;4978065;28;20066;-75
2022/05/17 10:16:57;;;;;;;4.50;2.22;;;25.60;68.20;;;;;;4990956;28;20035;-74
2022/05/17 10:19:52;;;;;;;10.45;1.92;;;25.90;69.20;;;;;;4970223;28;20091;-73
2022/05/17 10:22:27;;;;;;;5.97;2.25;;;26.30;76.40;;;;;;4995338;28;20489;-73
2022/05/17 10:25:09;;;;;;;7.00;2.42;;;26.20;71.90;;;;;;4974714;28;20110;-74
2022/05/17 10:27:44;;;;;;;7.03;2.10;;;26.20;73.40;;;;;;4984311;28;20115;-73
2022/05/17 10:30:31;;;;;;;6.68;2.28;;;26.30;70.50;;;;;;4992929;28;20035;-74
2022/05/17 10:33:03;;;;;;;8.68;2.35;;;26.10;74.20;;;;;;4995045;28;20054;-73
2022/05/17 10:35:46;;;;;;;5.75;2.33;;;26.00;70.80;;;;;;4993109;28;20039;-73
2022/05/17 10:38:18;;;;;;;5.70;2.10;;;26.10;68.80;;;;;;4980963;28;20437;-75
2022/05/17 10:40:46;;;;;;;5.28;2.22;;;26.70;69.00;;;;;;4978352;28;20520;-76
2022/05/17 10:43:20;;;;;;;7.85;2.45;;;26.70;69.70;;;;;;4976909;28;20039;-75
2022/05/17 10:46:04;;;;;;;8.20;2.47;;;26.30;70.30;;;;;;4975772;28;20422;-75
2022/05/17 10:48:48;;;;;;;6.93;2.33;;;26.00;73.10;;;;;;4976001;28;20042;-75
2022/05/17 10:51:25;;;;;;;7.07;2.53;;;25.90;71.30;;;;;;4975258;28;20048;-74
2022/05/17 10:54:03;;;;;;;6.03;2.58;;;25.80;72.20;;;;;;4975830;28;20035;-74
2022/05/17 10:57:04;;;;;;;7.60;2.13;;;26.20;73.40;;;;;;4975497;28;20502;-73
2022/05/17 10:59:39;;;;;;;9.15;2.20;;;26.30;75.10;;;;;;4975563;28;20035;-74
2022/05/17 11:02:37;;;;;;;6.93;2.42;;;26.60;72.10;;;;;;4975458;28;20043;-74
2022/05/17 11:05:21;;;;;;;5.90;2.30;;;27.10;69.30;;;;;;4975775;28;20076;-74
2022/05/17 11:08:08;;;;;;;6.28;2.50;;;27.20;71.20;;;;;;4976000;28;20118;-74
2022/05/17 11:11:03;;;;;;;7.15;2.13;;;26.80;72.40;;;;;;4975634;28;20560;-74
2022/05/17 11:13:40;;;;;;;8.80;2.08;;;26.80;70.20;;;;;;4972139;28;20078;-74
2022/05/17 11:16:27;;;;;;;8.75;2.38;;;26.90;68.40;;;;;;4957996;28;20074;-74
2022/05/17 11:19:18;;;;;;;5.15;2.45;;;27.30;65.90;;;;;;4974945;28;20058;-74
2022/05/17 11:21:52;;;;;;;3.58;2.00;;;27.70;64.90;;;;;;4957765;28;20098;-73
2022/05/17 11:24:34;;;;;;;5.05;2.65;;;27.60;66.40;;;;;;4975440;28;20062;-74
2022/05/17 11:27:03;;;;;;;3.75;1.80;;;27.50;65.40;;;;;;4958835;28;20485;-73
2022/05/17 11:29:52;;;;;;;6.15;2.03;;;28.00;65.20;;;;;;4975554;28;20039;-73
2022/05/17 11:32:26;;;;;;;3.08;1.70;;;28.00;61.40;;;;;;4975301;28;20057;-74
2022/05/17 11:34:55;;;;;;;4.07;1.45;;;27.50;66.30;;;;;;4957704;28;20039;-75
2022/05/17 11:37:33;;;;;;;4.88;1.60;;;27.80;64.50;;;;;;4975314;28;20166;-74
2022/05/17 11:40:08;;;;;;;3.00;1.60;;;27.90;65.30;;;;;;4975239;28;20094;-74
2022/05/17 11:45:40;;;;;;;4.55;1.60;;;28.30;61.70;;;;;;4975134;28;20043;-74
2022/05/17 11:48:15;;;;;;;3.13;1.55;;;27.90;63.10;;;;;;4975380;28;20529;-74
2022/05/17 11:51:02;;;;;;;2.45;1.63;;;27.30;63.80;;;;;;4974883;28;20039;-75
2022/05/17 11:53:29;;;;;;;8.45;1.92;;;27.50;66.60;;;;;;4956570;28;20051;-74
2022/05/17 11:56:18;;;;;;;3.42;1.90;;;28.10;64.30;;;;;;4974901;28;20046;-75
2022/05/17 11:58:47;;;;;;;3.92;1.80;;;27.80;66.50;;;;;;4975282;28;20055;-74
2022/05/17 12:01:35;;;;;;;3.75;1.70;;;28.00;65.50;;;;;;4974083;28;20453;-74
2022/05/17 12:04:26;;;;;;;3.65;1.70;;;28.30;61.90;;;;;;4974895;28;20035;-74
2022/05/17 12:06:52;;;;;;;5.38;1.58;;;28.30;64.10;;;;;;4974803;28;20035;-75
2022/05/17 12:09:20;;;;;;;3.88;1.77;;;28.30;65.20;;;;;;4975064;28;20027;-74
2022/05/17 12:12:11;;;;;;;3.47;1.40;;;28.50;61.00;;;;;;4957057;28;20043;-75
2022/05/17 12:14:57;;;;;;;1.98;1.30;;;28.60;64.50;;;;;;4974873;28;20123;-74
2022/05/17 12:17:30;;;;;;;3.85;1.80;;;29.10;62.00;;;;;;4974886;28;20087;-74
2022/05/17 12:20:07;;;;;;;3.28;1.60;;;29.10;59.60;;;;;;4974559;28;20036;-74
2022/05/17 12:22:46;;;;;;;3.80;1.50;;;29.40;62.20;;;;;;4974517;28;20094;-75
2022/05/17 12:25:18;;;;;;;3.60;1.70;;;28.70;63.30;;;;;;4974756;28;20043;-74
2022/05/17 12:27:46;;;;;;;4.38;1.70;;;28.70;61.30;;;;;;4975296;28;20508;-75
2022/05/17 12:33:18;;;;;;;2.22;1.25;;;28.90;60.30;;;;;;4978149;28;20039;-75
2022/05/17 12:35:45;;;;;;;3.97;1.58;;;29.10;59.90;;;;;;4977901;28;20042;-75
2022/05/17 12:43:48;;;;;;;5.22;1.52;;;29.50;63.50;;;;;;4977612;28;20539;-79
2022/05/17 12:46:24;;;;;;;4.90;1.23;;;29.80;55.50;;;;;;4977952;28;20114;-76
2022/05/17 12:48:51;;;;;;;1.67;1.10;;;29.40;59.20;;;;;;4960400;28;20070;-76
2022/05/17 12:51:19;;;;;;;2.38;1.23;;;29.60;61.00;;;;;;4960222;28;20036;-76
2022/05/17 12:53:53;;;;;;;1.98;1.25;;;29.90;56.70;;;;;;4977115;28;20039;-77
2022/05/17 12:56:24;;;;;;;1.60;1.20;;;29.90;61.70;;;;;;4977662;28;20522;-77
2022/05/17 12:58:59;;;;;;;2.50;1.38;;;30.20;57.90;;;;;;4977679;28;20067;-76
2022/05/17 13:01:43;;;;;;;5.32;1.48;;;30.50;55.80;;;;;;4977478;28;20380;-76
2022/05/17 13:04:16;;;;;;;6.05;1.70;;;30.30;58.60;;;;;;4976485;28;20035;-76
2022/05/17 13:06:49;;;;;;;3.22;1.30;;;30.40;56.20;;;;;;4977553;28;20038;-76
2022/05/17 13:09:24;;;;;;;2.55;1.20;;;30.70;55.70;;;;;;4976821;28;20036;-76
2022/05/17 13:11:52;;;;;;;3.28;1.17;;;30.40;55.50;;;;;;4977162;28;20039;-76
2022/05/17 13:14:27;;;;;;;1.90;1.10;;;30.50;55.50;;;;;;4976972;28;20043;-75
2022/05/17 13:17:01;;;;;;;3.10;1.20;;;30.80;58.00;;;;;;4977715;28;20028;-75
2022/05/17 13:19:27;;;;;;;2.30;1.15;;;30.80;55.20;;;;;;4976881;28;20035;-76
2022/05/17 13:21:54;;;;;;;1.88;1.20;;;31.40;55.00;;;;;;4977115;28;20038;-76
2022/05/17 13:24:40;;;;;;;1.42;1.10;;;31.50;53.70;;;;;;4976981;28;20069;-76
2022/05/17 13:27:19;;;;;;;2.03;1.02;;;31.50;53.60;;;;;;4959547;28;20035;-76
2022/05/17 13:29:56;;;;;;;2.63;1.25;;;31.50;55.40;;;;;;4976765;28;20625;-77
2022/05/17 13:32:25;;;;;;;3.08;1.20;;;31.70;50.60;;;;;;4959344;28;20070;-75
2022/05/17 13:35:09;;;;;;;3.10;1.15;;;32.60;52.50;;;;;;4976563;28;20453;-76
2022/05/17 13:37:53;;;;;;;4.50;1.20;;;33.80;50.70;;;;;;4976755;28;20036;-75
2022/05/17 13:40:40;;;;;;;4.03;1.27;;;33.80;49.40;;;;;;4976103;28;20035;-77
2022/05/17 13:43:25;;;;;;;1.95;1.20;;;33.90;49.00;;;;;;4976542;28;20058;-77
2022/05/17 13:46:05;;;;;;;2.97;1.10;;;34.10;49.10;;;;;;4976787;28;20043;-77
2022/05/17 13:48:33;;;;;;;1.38;1.10;;;34.20;53.20;;;;;;4959224;28;20031;-77
2022/05/17 13:51:01;;;;;;;3.88;1.33;;;34.70;47.70;;;;;;4976418;28;20037;-77
2022/05/17 13:53:34;;;;;;;1.95;1.40;;;34.40;47.50;;;;;;4959539;28;20046;-77
2022/05/17 13:56:02;;;;;;;4.22;1.30;;;34.90;51.90;;;;;;4959769;28;20103;-75
2022/05/17 13:58:29;;;;;;;4.05;1.30;;;36.00;50.20;;;;;;4977186;28;20031;-76
2022/05/17 14:01:06;;;;;;;2.85;1.27;;;36.70;45.00;;;;;;4976368;28;20538;-74
2022/05/17 14:03:32;;;;;;;4.10;1.45;;;36.60;42.50;;;;;;4958932;28;20106;-76
2022/05/17 14:06:09;;;;;;;4.00;1.40;;;34.30;44.50;;;;;;4995148;28;20047;-77
2022/05/17 14:14:07;;;;;;;4.13;1.40;;;30.50;52.80;;;;;;4995208;28;20059;-79
2022/05/17 14:16:33;;;;;;;2.40;1.40;;;29.80;54.50;;;;;;4996045;28;20097;-78
2022/05/17 14:19:04;;;;;;;1.80;1.30;;;29.10;55.80;;;;;;4996821;28;20034;-77
2022/05/17 14:21:30;;;;;;;3.95;1.20;;;28.60;58.60;;;;;;4996251;28;20124;-76
2022/05/17 14:23:56;;;;;;;2.40;1.25;;;28.20;57.50;;;;;;4995225;28;20059;-75
2022/05/17 14:26:24;;;;;;;2.20;1.30;;;27.70;58.40;;;;;;4995487;28;20034;-76
2022/05/17 14:28:49;;;;;;;2.30;1.50;;;27.30;58.10;;;;;;4977874;28;20102;-77
2022/05/17 14:31:27;;;;;;;4.10;1.67;;;27.00;65.30;;;;;;4995296;28;20493;-76
2022/05/17 14:33:54;;;;;;;3.60;1.45;;;26.80;60.70;;;;;;4995598;28;20031;-76
2022/05/17 14:36:24;;;;;;;9.57;2.28;;;26.50;64.20;;;;;;4995566;28;20035;-77
2022/05/17 14:38:51;;;;;;;5.55;2.22;;;26.20;64.40;;;;;;4995397;28;20515;-76
2022/05/17 14:41:16;;;;;;;5.78;2.20;;;26.00;65.10;;;;;;4977626;28;20093;-76
2022/05/17 14:43:43;;;;;;;5.47;1.80;;;25.70;65.40;;;;;;4994969;28;20041;-76
2022/05/17 14:46:12;;;;;;;2.40;1.40;;;25.50;67.90;;;;;;4995363;28;20061;-77
2022/05/17 14:48:38;;;;;;;4.85;1.42;;;25.60;68.80;;;;;;4995280;28;20027;-76
2022/05/17 14:51:05;;;;;;;9.02;2.20;;;25.40;69.20;;;;;;4995718;28;20038;-77
2022/05/17 14:53:31;;;;;;;4.22;1.58;;;25.30;70.40;;;;;;4976066;28;20528;-76
2022/05/17 14:55:57;;;;;;;3.85;1.67;;;25.10;68.00;;;;;;4979840;28;20039;-73
2022/05/17 14:58:22;;;;;;;4.55;1.90;;;25.00;70.40;;;;;;4975308;28;20035;-76
2022/05/17 15:00:51;;;;;;;6.10;1.85;;;24.90;68.50;;;;;;4974690;28;20039;-76
2022/05/17 15:03:36;;;;;;;4.25;1.80;;;24.90;71.30;;;;;;4975464;28;20509;-76
2022/05/17 15:06:02;;;;;;;2.70;1.65;;;24.80;71.70;;;;;;4975259;28;20043;-76
2022/05/17 15:08:29;;;;;;;4.15;1.85;;;24.60;71.80;;;;;;4975765;28;20038;-76
2022/05/17 15:10:54;;;;;;;5.43;2.13;;;24.50;72.30;;;;;;4974648;28;20039;-76
2022/05/17 15:13:20;;;;;;;4.35;1.63;;;24.40;71.90;;;;;;4957066;28;20029;-75
2022/05/17 15:15:51;;;;;;;4.88;2.15;;;24.40;72.20;;;;;;4975201;28;20047;-74
2022/05/17 15:18:20;;;;;;;6.10;1.88;;;24.40;72.00;;;;;;4976921;28;20035;-77
2022/05/17 15:20:55;;;;;;;8.15;2.00;;;24.30;72.10;;;;;;4974907;28;20031;-75
2022/05/17 15:23:27;;;;;;;2.90;2.17;;;24.30;74.60;;;;;;4974809;28;20404;-76
2022/05/17 15:25:52;;;;;;;3.08;1.60;;;24.20;72.60;;;;;;4974808;28;20134;-75
2022/05/17 15:28:18;;;;;;;4.18;1.73;;;24.10;74.30;;;;;;4957431;28;20126;-75
2022/05/17 15:30:44;;;;;;;4.53;2.15;;;24.10;74.90;;;;;;4974668;28;20039;-74
2022/05/17 15:33:10;;;;;;;3.75;1.85;;;24.10;73.70;;;;;;4974568;28;20041;-76
2022/05/17 15:35:39;;;;;;;3.85;1.55;;;24.20;74.70;;;;;;4974804;28;20413;-74
2022/05/17 15:38:05;;;;;;;4.95;1.85;;;24.10;74.10;;;;;;4974558;28;20191;-76
2022/05/17 15:40:31;;;;;;;4.35;1.70;;;24.00;74.80;;;;;;4975297;28;20066;-76
2022/05/17 15:42:57;;;;;;;3.75;1.70;;;23.80;73.30;;;;;;4974955;28;20043;-75
2022/05/17 15:45:23;;;;;;;3.97;1.70;;;23.90;73.20;;;;;;4974657;28;20050;-75
2022/05/17 15:53:22;;;;;;;4.32;1.80;;;23.80;74.10;;;;;;4972378;28;20079;-76
2022/05/17 15:56:14;;;;;;;3.58;1.42;;;23.80;75.50;;;;;;4957298;28;20475;-76
2022/05/17 15:58:43;;;;;;;6.72;1.77;;;23.80;74.60;;;;;;4956747;28;20438;-76
2022/05/17 16:01:23;;;;;;;3.97;1.80;;;23.80;75.10;;;;;;4975676;28;20039;-76
2022/05/17 16:06:46;;;;;;;6.47;2.10;;;23.70;75.10;;;;;;4969082;28;20047;-74
2022/05/17 16:09:14;;;;;;;4.15;1.65;;;23.90;75.70;;;;;;4977420;28;20042;-75
2022/05/17 16:11:49;;;;;;;3.25;1.70;;;24.00;76.60;;;;;;4978955;28;20042;-75
2022/05/17 16:14:24;;;;;;;6.15;2.08;;;24.00;75.30;;;;;;4974309;28;20134;-76
2022/05/17 16:16:54;;;;;;;3.97;1.67;;;24.10;75.80;;;;;;4977266;28;20050;-75
2022/05/17 16:19:23;;;;;;;3.80;1.55;;;24.20;78.00;;;;;;4977716;28;20039;-75
2022/05/17 16:21:54;;;;;;;7.20;1.80;;;24.10;75.90;;;;;;4968269;28;20047;-77
2022/05/17 16:24:23;;;;;;;4.75;1.92;;;24.00;75.30;;;;;;4998368;28;20497;-73
2022/05/17 16:26:50;;;;;;;3.80;2.05;;;24.00;76.10;;;;;;4996820;28;20035;-72
2022/05/17 16:29:16;;;;;;;3.05;1.90;;;24.20;77.70;;;;;;4987179;28;20039;-74
2022/05/17 16:31:42;;;;;;;3.78;1.90;;;24.30;75.30;;;;;;4978812;28;20074;-74
2022/05/17 16:34:09;;;;;;;6.32;2.38;;;24.50;74.80;;;;;;4975982;28;20126;-75
2022/05/17 16:36:35;;;;;;;3.15;1.45;;;24.50;75.70;;;;;;4958772;28;20035;-74
2022/05/17 16:39:00;;;;;;;3.53;2.05;;;24.60;75.50;;;;;;4977770;28;20031;-75
2022/05/17 16:41:26;;;;;;;2.20;1.33;;;24.50;76.70;;;;;;4977678;28;20062;-72
2022/05/17 16:43:52;;;;;;;4.95;1.88;;;24.60;77.00;;;;;;4977453;28;20039;-79
2022/05/17 16:46:20;;;;;;;3.92;1.83;;;24.70;76.70;;;;;;4980437;28;20040;-74
2022/05/17 16:48:46;;;;;;;3.75;1.88;;;24.70;77.00;;;;;;4995937;28;20038;-75
2022/05/17 16:51:13;;;;;;;4.70;1.60;;;24.50;79.90;;;;;;4996258;28;20472;-73
2022/05/17 16:53:39;;;;;;;2.63;1.63;;;24.60;78.00;;;;;;4997249;28;20458;-73
2022/05/17 16:56:05;;;;;;;4.00;1.90;;;24.70;78.90;;;;;;4997037;28;20070;-72
2022/05/17 16:58:30;;;;;;;4.95;2.10;;;24.90;79.10;;;;;;4979679;28;20492;-72
2022/05/17 17:00:56;;;;;;;6.38;3.28;;;24.90;77.70;;;;;;4996800;28;20042;-74
2022/05/17 17:03:22;;;;;;;6.97;3.15;;;24.80;78.50;;;;;;4997141;28;20035;-73
2022/05/17 17:05:49;;;;;;;10.15;4.47;;;24.90;78.00;;;;;;4979251;28;20043;-72
2022/05/17 17:08:16;;;;;;;6.30;3.15;;;24.90;77.80;;;;;;4996876;28;20030;-73
2022/05/17 17:10:43;;;;;;;4.40;1.88;;;25.30;77.80;;;;;;4997085;28;20109;-73
2022/05/17 17:13:10;;;;;;;7.18;2.38;;;25.40;75.90;;;;;;4978760;28;20047;-72
2022/05/17 17:15:37;;;;;;;3.95;1.75;;;25.30;75.30;;;;;;4995953;28;20031;-73
2022/05/17 17:18:03;;;;;;;2.17;1.58;;;25.20;75.20;;;;;;4996477;28;20039;-79
2022/05/17 17:20:29;;;;;;;3.70;1.60;;;24.90;76.00;;;;;;4996598;28;20110;-73
2022/05/17 17:22:55;;;;;;;4.50;1.88;;;24.80;78.20;;;;;;4996588;28;20110;-74
2022/05/17 17:25:21;;;;;;;3.67;1.88;;;24.70;80.00;;;;;;4996227;28;20039;-74
2022/05/17 17:27:53;;;;;;;3.63;1.60;;;24.50;78.40;;;;;;4996656;28;20030;-73
2022/05/17 17:30:20;;;;;;;2.97;1.45;;;24.60;80.80;;;;;;4996271;28;20062;-73
2022/05/17 17:38:17;;;;;;;2.85;1.92;;;24.50;79.40;;;;;;4994343;28;20079;-74
2022/05/17 17:40:43;;;;;;;2.10;1.38;;;24.50;82.00;;;;;;4976413;28;20170;-74
2022/05/17 17:43:11;;;;;;;5.30;1.65;;;24.50;79.60;;;;;;4976977;28;20065;-74